createdAt,value
2022-08-05T00:00:09.809Z,60.42
2022-08-05T00:01:20.589Z,58.97
2022-08-05T00:02:11.600Z,56.72
2022-08-05T00:03:08.768Z,57.52
2022-08-05T00:04:08.782Z,57.85
2022-08-05T00:05:08.724Z,59.14
2022-08-05T00:06:28.991Z,60.91
2022-08-05T00:07:26.963Z,61.23
2022-08-05T00:08:08.754Z,59.94
2022-08-05T00:09:12.795Z,60.26
2022-08-05T00:10:09.230Z,60.75
2022-08-05T00:11:20.488Z,61.23
2022-08-05T00:12:08.617Z,58.01
2022-08-05T00:13:08.636Z,60.42
2022-08-05T00:14:12.009Z,58.49
2022-08-05T00:15:54.251Z,62.84
2022-08-05T00:16:08.750Z,61.55
2022-08-05T00:17:18.696Z,57.69
2022-08-05T00:18:08.544Z,61.55
2022-08-05T00:19:08.529Z,63.33
2022-08-05T00:20:09.567Z,59.78
2022-08-05T00:21:08.658Z,56.72
2022-08-05T00:22:11.401Z,61.87
2022-08-05T00:23:12.813Z,60.75
2022-08-05T00:24:10.723Z,60.42
2022-08-05T00:25:12.685Z,60.10
2022-08-05T00:26:08.507Z,62.36
2022-08-05T00:27:10.554Z,59.94
2022-08-05T00:28:09.430Z,59.30
2022-08-05T00:29:08.442Z,57.85
2022-08-05T00:30:11.451Z,59.78
2022-08-05T00:31:08.408Z,60.75
2022-08-05T00:32:12.481Z,59.78
2022-08-05T00:33:15.357Z,58.65
2022-08-05T00:34:56.864Z,58.97
2022-08-05T00:35:08.356Z,56.88
2022-08-05T00:36:16.290Z,60.42
2022-08-05T00:37:20.272Z,59.62
2022-08-05T00:38:09.496Z,57.85
2022-08-05T00:39:13.949Z,60.26
2022-08-05T00:40:09.515Z,58.81
2022-08-05T00:41:11.650Z,62.52
2022-08-05T00:42:08.252Z,61.55
2022-08-05T00:43:08.282Z,60.91
2022-08-05T00:44:08.226Z,61.23
2022-08-05T00:45:11.875Z,55.91
2022-08-05T00:46:08.285Z,59.78
2022-08-05T00:47:08.194Z,59.14
2022-08-05T00:48:08.196Z,56.88
2022-08-05T00:49:08.305Z,60.91
2022-08-05T00:50:08.170Z,58.81
2022-08-05T00:51:09.020Z,58.01
2022-08-05T00:52:09.155Z,59.62
2022-08-05T00:53:16.065Z,61.87
2022-08-05T00:54:08.827Z,59.46
2022-08-05T00:55:08.101Z,62.36
2022-08-05T00:56:08.989Z,61.39
2022-08-05T00:57:08.357Z,60.42
2022-08-05T00:58:08.087Z,61.71
2022-08-05T00:59:08.098Z,61.07
2022-08-05T01:00:11.054Z,60.91
2022-08-05T01:01:09.027Z,60.75
2022-08-05T01:02:08.052Z,59.30
2022-08-05T01:03:08.204Z,57.20
2022-08-05T01:04:13.593Z,61.87
2022-08-05T01:05:10.252Z,59.78
2022-08-05T01:06:11.277Z,58.65
2022-08-05T01:07:08.041Z,54.62
2022-08-05T01:08:41.465Z,56.07
2022-08-05T01:09:07.978Z,54.95
2022-08-05T01:10:09.170Z,56.40
2022-08-05T01:11:07.898Z,59.14
2022-08-05T01:12:18.146Z,58.49
2022-08-05T01:13:12.845Z,57.04
2022-08-05T01:14:08.820Z,56.24
2022-08-05T01:15:35.523Z,58.81
2022-08-05T01:16:07.820Z,56.72
2022-08-05T01:17:07.873Z,58.17
2022-08-05T01:18:08.452Z,58.49
2022-08-05T01:19:07.784Z,57.85
2022-08-05T01:20:07.798Z,56.56
2022-08-05T01:21:07.771Z,55.43
2022-08-05T01:22:07.769Z,56.72
2022-08-05T01:23:15.397Z,56.88
2022-08-05T01:24:13.226Z,57.69
2022-08-05T01:25:07.741Z,58.81
2022-08-05T01:26:07.747Z,55.59
2022-08-05T01:27:26.986Z,57.52
2022-08-05T01:28:08.814Z,61.87
2022-08-05T01:29:07.672Z,58.17
2022-08-05T01:30:17.847Z,61.23
2022-08-05T01:31:07.646Z,56.07
2022-08-05T01:32:12.492Z,56.40
2022-08-05T01:33:08.325Z,56.40
2022-08-05T01:34:08.402Z,59.14
2022-08-05T01:35:10.614Z,59.78
2022-08-05T01:36:07.599Z,59.78
2022-08-05T01:37:07.560Z,58.01
2022-08-05T01:38:07.624Z,61.39
2022-08-05T01:39:08.568Z,59.30
2022-08-05T01:40:07.583Z,57.52
2022-08-05T01:41:07.516Z,58.65
2022-08-05T01:42:07.527Z,59.94
2022-08-05T01:43:07.548Z,58.81
2022-08-05T01:44:09.934Z,60.59
2022-08-05T01:45:08.475Z,57.85
2022-08-05T01:46:16.370Z,59.46
2022-08-05T01:47:07.469Z,58.97
2022-08-05T01:48:10.433Z,60.59
2022-08-05T01:49:23.011Z,58.81
2022-08-05T01:50:08.431Z,61.87
2022-08-05T01:51:12.011Z,61.39
2022-08-05T01:52:17.676Z,63.49
2022-08-05T01:53:07.364Z,62.36
2022-08-05T01:54:07.389Z,62.68
2022-08-05T01:55:07.392Z,63.65
2022-08-05T01:56:08.978Z,63.81
2022-08-05T01:58:10.631Z,65.90
2022-08-05T01:58:15.647Z,66.06
2022-08-05T01:59:07.326Z,63.16
2022-08-05T02:00:11.989Z,62.68
2022-08-05T02:01:07.259Z,61.07
2022-08-05T02:02:07.264Z,60.59
2022-08-05T02:03:07.223Z,63.65
2022-08-05T02:04:07.257Z,64.61
2022-08-05T02:05:11.751Z,60.59
2022-08-05T02:06:33.346Z,63.97
2022-08-05T02:07:07.197Z,62.68
2022-08-05T02:08:07.223Z,63.16
2022-08-05T02:09:07.190Z,68.64
2022-08-05T02:10:07.841Z,60.75
2022-08-05T02:11:07.184Z,63.49
2022-08-05T02:12:07.175Z,64.29
2022-08-05T02:13:16.170Z,62.84
2022-08-05T02:14:07.123Z,60.91
2022-08-05T02:15:07.106Z,62.36
2022-08-05T02:16:07.089Z,68.16
2022-08-05T02:17:07.351Z,68.16
2022-08-05T02:18:28.019Z,63.81
2022-08-05T02:19:07.349Z,59.94
2022-08-05T02:20:07.049Z,59.94
2022-08-05T02:21:14.838Z,60.42
2022-08-05T02:22:07.024Z,62.84
2022-08-05T02:23:08.764Z,62.52
2022-08-05T02:24:07.009Z,59.62
2022-08-05T02:25:06.984Z,62.36
2022-08-05T02:26:06.954Z,62.04
2022-08-05T02:27:10.097Z,60.42
2022-08-05T02:28:08.989Z,59.30
2022-08-05T02:29:06.953Z,60.75
2022-08-05T02:30:06.933Z,59.46
2022-08-05T02:31:07.685Z,59.62
2022-08-05T02:32:06.885Z,58.33
2022-08-05T02:33:06.882Z,58.97
2022-08-05T02:34:06.896Z,59.94
2022-08-05T02:35:13.359Z,58.97
2022-08-05T02:36:06.868Z,59.62
2022-08-05T02:37:06.851Z,58.33
2022-08-05T02:38:09.452Z,59.94
2022-08-05T02:39:08.792Z,60.10
2022-08-05T02:40:06.871Z,58.81
2022-08-05T02:41:17.092Z,57.85
2022-08-05T02:42:06.777Z,61.07
2022-08-05T02:43:07.149Z,58.33
2022-08-05T02:44:12.089Z,60.10
2022-08-05T02:45:06.769Z,59.94
2022-08-05T02:46:06.942Z,65.74
2022-08-05T02:47:06.730Z,62.04
2022-08-05T02:48:12.411Z,68.00
2022-08-05T02:49:06.663Z,68.48
2022-08-05T02:50:06.674Z,78.31
2022-08-05T02:51:06.667Z,69.13
2022-08-05T02:52:06.654Z,65.42
2022-08-05T02:53:06.907Z,58.65
2022-08-05T02:54:06.628Z,69.77
2022-08-05T02:55:10.740Z,66.06
2022-08-05T02:56:06.617Z,64.29
2022-08-05T02:57:10.193Z,61.23
2022-08-05T02:58:09.707Z,62.84
2022-08-05T02:59:07.580Z,66.06
2022-08-05T03:00:06.550Z,66.55
2022-08-05T03:01:06.635Z,63.97
2022-08-05T03:02:06.546Z,62.04
2022-08-05T03:03:07.765Z,62.52
2022-08-05T03:04:14.363Z,68.48
2022-08-05T03:05:06.504Z,62.68
2022-08-05T03:06:54.659Z,54.14
2022-08-05T03:07:06.481Z,58.33
2022-08-05T03:08:08.649Z,62.52
2022-08-05T03:09:06.467Z,56.72
2022-08-05T03:10:06.472Z,57.52
2022-08-05T03:11:57.133Z,59.62
2022-08-05T03:12:06.444Z,63.49
2022-08-05T03:14:54.261Z,63.00
2022-08-05T03:15:54.228Z,63.16
2022-08-05T03:16:54.074Z,63.97
2022-08-05T03:17:55.616Z,63.16
2022-08-05T03:18:53.969Z,63.16
2022-08-05T03:19:53.947Z,63.16
2022-08-05T03:20:53.961Z,63.16
2022-08-05T03:21:53.942Z,62.04
2022-08-05T03:22:55.265Z,60.42
2022-08-05T03:23:53.907Z,63.49
2022-08-05T03:24:53.882Z,63.00
2022-08-05T03:26:04.803Z,63.49
2022-08-05T03:26:53.864Z,63.33
2022-08-05T03:27:58.973Z,63.16
2022-08-05T03:28:53.860Z,63.81
2022-08-05T03:30:08.645Z,63.81
2022-08-05T03:30:53.821Z,64.29
2022-08-05T03:31:57.231Z,62.84
2022-08-05T03:32:53.848Z,61.55
2022-08-05T03:33:53.789Z,62.36
2022-08-05T03:34:53.773Z,60.10
2022-08-05T03:35:53.768Z,60.59
2022-08-05T03:36:54.895Z,59.46
2022-08-05T03:37:54.902Z,56.72
2022-08-05T03:38:54.941Z,58.01
2022-08-05T03:39:58.496Z,57.36
2022-08-05T03:40:54.909Z,59.14
2022-08-05T03:41:56.345Z,61.07
2022-08-05T03:42:54.865Z,58.81
2022-08-05T03:44:08.881Z,58.81
2022-08-05T03:44:54.784Z,57.69
2022-08-05T03:45:57.432Z,56.72
2022-08-05T03:46:54.783Z,60.75
2022-08-05T03:47:56.849Z,58.81
2022-08-05T03:48:54.760Z,57.36
2022-08-05T03:49:54.737Z,55.91
2022-08-05T03:50:54.767Z,56.07
2022-08-05T03:52:38.331Z,58.81
2022-08-05T03:55:34.284Z,57.85
2022-08-05T03:55:50.630Z,58.81
2022-08-05T03:55:52.394Z,60.10
2022-08-05T03:56:09.361Z,58.81
2022-08-05T03:56:54.659Z,56.40
2022-08-05T03:57:54.657Z,58.17
2022-08-05T03:58:54.679Z,58.01
2022-08-05T03:59:55.711Z,57.52
2022-08-05T04:00:54.624Z,60.26
2022-08-05T04:01:59.054Z,58.97
2022-08-05T04:02:58.587Z,62.20
2022-08-05T04:04:09.060Z,62.04
2022-08-05T04:04:54.571Z,61.39
2022-08-05T04:05:54.556Z,60.59
2022-08-05T04:06:54.577Z,62.52
2022-08-05T04:07:58.241Z,63.16
2022-08-05T04:08:54.541Z,64.45
2022-08-05T04:09:54.490Z,63.33
2022-08-05T04:10:54.521Z,61.39
2022-08-05T04:11:56.357Z,64.13
2022-08-05T04:12:54.508Z,63.49
2022-08-05T04:13:55.283Z,63.49
2022-08-05T04:14:54.475Z,62.36
2022-08-05T04:16:04.779Z,62.84
2022-08-05T04:16:54.478Z,63.00
2022-08-05T04:17:56.236Z,62.36
2022-08-05T04:18:54.936Z,62.36
2022-08-05T04:19:54.690Z,61.71
2022-08-05T04:26:49.714Z,65.90
2022-08-05T04:27:58.951Z,64.94
2022-08-05T04:28:51.171Z,63.16
2022-08-05T04:29:48.459Z,66.71
2022-08-05T04:30:48.300Z,67.68
2022-08-05T04:31:49.648Z,67.19
2022-08-05T04:32:48.272Z,67.19
2022-08-05T04:34:18.940Z,64.61
2022-08-05T04:34:48.381Z,65.10
2022-08-05T04:36:16.397Z,65.26
2022-08-05T04:36:50.032Z,65.26
2022-08-05T04:38:02.405Z,65.58
2022-08-05T04:38:51.015Z,66.39
2022-08-05T04:39:52.700Z,69.77
2022-08-05T04:40:50.976Z,65.58
2022-08-05T04:41:51.033Z,68.64
2022-08-05T04:42:49.627Z,66.06
2022-08-05T04:43:52.780Z,68.16
2022-08-05T04:44:49.819Z,64.29
2022-08-05T04:45:54.898Z,67.03
2022-08-05T04:46:49.619Z,65.10
2022-08-05T04:47:51.740Z,62.68
2022-08-05T04:48:51.717Z,64.61
2022-08-05T04:50:01.538Z,64.29
2022-08-05T04:51:02.753Z,65.10
2022-08-05T04:51:50.642Z,63.16
2022-08-05T04:52:49.571Z,62.68
2022-08-05T04:53:49.534Z,63.16
2022-08-05T04:54:49.594Z,63.33
2022-08-05T04:56:14.429Z,64.29
2022-08-05T04:56:52.404Z,63.00
2022-08-05T04:57:54.478Z,63.33
2022-08-05T04:58:52.875Z,67.51
2022-08-05T04:59:49.528Z,69.61
2022-08-05T05:04:09.427Z,65.10
2022-08-05T05:05:16.722Z,63.49
2022-08-05T05:06:38.840Z,61.71
2022-08-05T05:07:09.531Z,63.33
2022-08-05T05:08:06.559Z,63.16
2022-08-05T05:09:06.502Z,64.29
2022-08-05T05:10:06.651Z,64.61
2022-08-05T05:11:06.489Z,63.97
2022-08-05T05:12:06.483Z,63.16
2022-08-05T05:13:06.443Z,63.49
2022-08-05T05:14:06.458Z,64.45
2022-08-05T05:15:10.726Z,61.87
2022-08-05T05:16:07.156Z,62.20
2022-08-05T05:17:07.447Z,62.84
2022-08-05T05:18:06.406Z,63.49
2022-08-05T05:19:18.712Z,61.07
2022-08-05T05:20:06.376Z,62.84
2022-08-05T05:21:06.348Z,63.81
2022-08-05T05:22:23.869Z,65.90
2022-08-05T05:23:08.459Z,63.49
2022-08-05T05:24:09.050Z,64.45
2022-08-05T05:25:15.966Z,63.49
2022-08-05T05:26:06.298Z,63.49
2022-08-05T05:27:17.313Z,63.33
2022-08-05T05:28:06.461Z,64.61
2022-08-05T05:29:14.269Z,65.42
2022-08-05T05:30:06.324Z,65.10
2022-08-05T05:31:08.997Z,63.49
2022-08-05T05:32:06.244Z,64.78
2022-08-05T05:33:15.977Z,63.97
2022-08-05T05:34:06.199Z,64.13
2022-08-05T05:35:06.254Z,64.78
2022-08-05T05:36:06.173Z,65.42
2022-08-05T05:37:06.194Z,64.29
2022-08-05T05:38:06.156Z,64.45
2022-08-05T05:39:09.381Z,63.33
2022-08-05T05:40:06.148Z,63.16
2022-08-05T05:41:07.621Z,63.16
2022-08-05T05:42:06.115Z,65.26
2022-08-05T05:43:08.538Z,63.33
2022-08-05T05:44:06.595Z,63.00
2022-08-05T05:45:06.061Z,62.68
2022-08-05T05:46:10.619Z,61.87
2022-08-05T05:47:21.316Z,64.45
2022-08-05T05:48:08.450Z,64.61
2022-08-05T05:49:06.523Z,62.68
2022-08-05T05:50:06.039Z,63.97
2022-08-05T05:51:15.646Z,62.84
2022-08-05T05:52:07.285Z,60.91
2022-08-05T05:53:21.537Z,62.68
2022-08-05T05:54:06.392Z,63.00
2022-08-05T05:55:07.495Z,63.81
2022-08-05T05:56:05.922Z,62.84
2022-08-05T05:57:05.971Z,62.20
2022-08-05T05:58:05.950Z,62.20
2022-08-05T05:59:06.759Z,64.13
2022-08-05T06:00:05.934Z,63.81
2022-08-05T06:01:12.732Z,63.65
2022-08-05T06:02:05.867Z,63.65
2022-08-05T06:03:39.855Z,60.91
2022-08-05T06:04:05.928Z,61.23
2022-08-05T06:05:10.548Z,61.55
2022-08-05T06:06:05.804Z,60.42
2022-08-05T06:07:05.780Z,62.04
2022-08-05T06:08:05.780Z,61.87
2022-08-05T06:09:05.831Z,62.84
2022-08-05T06:10:10.245Z,64.61
2022-08-05T06:11:05.731Z,60.91
2022-08-05T06:12:05.726Z,58.49
2022-08-05T06:13:05.863Z,61.23
2022-08-05T06:14:05.714Z,58.97
2022-08-05T06:15:05.676Z,59.30
2022-08-05T06:16:30.748Z,59.94
2022-08-05T06:17:22.689Z,62.68
2022-08-05T06:18:05.652Z,62.84
2022-08-05T06:19:07.589Z,63.00
2022-08-05T20:48:58.027Z,60.91
2022-08-05T20:50:32.551Z,59.14
2022-08-05T20:53:56.667Z,61.23
2022-08-05T20:55:15.760Z,61.87
2022-08-05T20:55:56.747Z,61.71
2022-08-05T20:56:50.188Z,59.14
2022-08-05T20:57:50.108Z,59.78
2022-08-05T21:19:46.726Z,59.62
2022-08-05T21:20:35.819Z,60.59
2022-08-05T21:21:39.696Z,61.71
2022-08-05T21:22:34.651Z,62.04
2022-08-05T21:23:37.198Z,64.94
2022-08-05T21:24:34.421Z,59.62
2022-08-05T21:25:34.507Z,63.16
2022-08-05T21:26:34.636Z,59.78
2022-08-05T21:27:38.677Z,61.39
2022-08-05T21:28:34.509Z,60.10
2022-08-05T21:29:40.600Z,62.04
2022-08-05T21:30:34.450Z,62.20
2022-08-05T21:31:41.039Z,60.75
2022-08-05T21:32:34.344Z,62.68
2022-08-05T21:33:37.100Z,61.55
2022-08-05T21:34:35.490Z,61.87
2022-08-05T21:35:55.911Z,59.78
2022-08-05T21:36:34.247Z,61.23
2022-08-05T21:37:35.040Z,63.00
2022-08-05T21:44:01.337Z,61.55
2022-08-05T21:44:50.636Z,58.65
2022-08-05T21:45:56.584Z,62.84
2022-08-05T21:46:49.723Z,63.49
2022-08-05T21:47:56.478Z,58.49
2022-08-05T21:48:49.568Z,61.39
2022-08-05T21:50:01.099Z,59.78
2022-08-05T21:50:54.139Z,63.00
2022-08-05T21:56:01.314Z,59.78
2022-08-05T21:56:22.880Z,59.14
2022-08-05T21:57:31.712Z,60.26
2022-08-05T21:58:30.874Z,61.23
2022-08-05T21:59:24.205Z,58.01
2022-08-05T22:00:22.840Z,59.78
2022-08-05T22:01:24.002Z,57.04
2022-08-05T22:02:25.491Z,59.14
2022-08-05T22:03:48.957Z,60.59
2022-08-05T22:04:25.424Z,61.39
2022-08-05T22:05:27.355Z,60.75
2022-08-05T22:06:34.738Z,60.42
2022-08-05T22:07:40.491Z,59.14
2022-08-05T22:08:24.339Z,62.36
2022-08-05T22:09:23.925Z,60.91
2022-08-05T22:10:27.080Z,59.30
2022-08-05T22:11:35.114Z,58.33
2022-08-05T22:12:24.005Z,57.85
2022-08-05T22:14:32.384Z,61.87
2022-08-05T22:14:34.218Z,59.30
2022-08-05T22:16:02.601Z,59.94
2022-08-05T22:16:41.353Z,59.30
2022-08-05T22:17:25.743Z,61.23
2022-08-05T22:18:24.888Z,61.71
2022-08-05T22:20:00.832Z,61.71
2022-08-05T22:20:25.334Z,61.39
2022-08-05T22:21:23.873Z,58.65
2022-08-05T22:22:28.021Z,62.68
2022-08-05T22:23:24.188Z,61.39
2022-08-05T22:24:40.533Z,63.49
2022-08-05T22:25:31.152Z,60.75
2022-08-05T22:26:24.040Z,60.42
2022-08-05T22:27:23.984Z,58.65
2022-08-05T22:28:23.908Z,62.84
2022-08-05T22:29:26.120Z,60.91
2022-08-05T22:30:23.787Z,61.07
2022-08-05T22:31:24.100Z,62.68
2022-08-05T22:32:24.170Z,62.36
2022-08-05T22:33:58.514Z,60.59
2022-08-05T22:34:28.286Z,61.87
2022-08-05T22:35:23.944Z,61.23
2022-08-05T22:36:24.303Z,61.71
2022-08-05T22:37:23.932Z,65.26
2022-08-05T22:38:24.084Z,60.75
2022-08-05T22:39:24.207Z,59.94
2022-08-05T22:40:23.950Z,61.23
2022-08-05T22:41:26.338Z,64.29
2022-08-05T22:42:26.012Z,60.59
2022-08-05T22:43:36.997Z,62.04
2022-08-05T22:44:23.991Z,62.36
2022-08-05T22:45:25.149Z,63.16
2022-08-05T22:46:25.804Z,61.23
2022-08-05T22:47:29.727Z,62.52
2022-08-05T22:48:24.157Z,61.87
2022-08-05T22:50:20.364Z,64.13
2022-08-05T22:50:27.718Z,63.33
2022-08-05T22:52:02.973Z,62.52
2022-08-05T22:52:32.180Z,66.06
2022-08-05T22:53:23.724Z,65.26
2022-08-05T22:54:23.694Z,63.49
2022-08-05T22:55:24.176Z,64.45
2022-08-05T22:56:30.742Z,65.74
2022-08-05T22:57:23.787Z,65.42
2022-08-05T22:58:28.521Z,63.16
2022-08-05T22:59:44.201Z,63.65
2022-08-05T23:00:23.766Z,59.46
2022-08-05T23:01:23.698Z,61.23
2022-08-05T23:02:28.978Z,62.36
2022-08-05T23:03:57.727Z,63.33
2022-08-05T23:04:23.680Z,62.52
2022-08-05T23:05:23.679Z,65.10
2022-08-05T23:06:26.323Z,64.13
2022-08-05T23:07:23.724Z,62.84
2022-08-05T23:08:23.493Z,63.16
2022-08-05T23:09:28.015Z,63.33
2022-08-05T23:10:24.285Z,63.00
2022-08-05T23:11:23.296Z,62.20
2022-08-05T23:12:23.882Z,63.16
2022-08-05T23:13:23.386Z,63.81
2022-08-05T23:14:32.057Z,64.94
2022-08-05T23:15:26.962Z,62.68
2022-08-05T23:16:26.242Z,61.23
2022-08-05T23:17:24.450Z,63.49
2022-08-05T23:18:23.394Z,63.81
2022-08-05T23:19:25.862Z,63.00
2022-08-05T23:20:23.554Z,63.65
2022-08-05T23:21:23.775Z,67.03
2022-08-05T23:22:27.620Z,64.13
2022-08-05T23:23:23.049Z,65.26
2022-08-05T23:24:23.162Z,63.65
2022-08-05T23:25:53.629Z,59.78
2022-08-05T23:26:23.176Z,62.04
2022-08-05T23:27:24.125Z,64.13
2022-08-05T23:28:29.218Z,61.55
2022-08-05T23:29:23.079Z,62.20
2022-08-05T23:30:27.141Z,62.84
2022-08-05T23:31:23.079Z,63.00
2022-08-05T23:32:23.210Z,59.30
2022-08-05T23:33:26.452Z,61.55
2022-08-05T23:34:24.711Z,60.42
2022-08-05T23:35:23.101Z,59.46
2022-08-05T23:36:23.018Z,59.46
2022-08-05T23:37:23.393Z,61.39
2022-08-05T23:38:23.209Z,62.36
2022-08-05T23:39:31.855Z,58.33
2022-08-05T23:40:27.194Z,61.71
2022-08-05T23:41:22.951Z,60.59
2022-08-05T23:42:23.436Z,61.71
2022-08-05T23:43:24.885Z,61.39
2022-08-05T23:44:27.833Z,65.26
2022-08-05T23:45:23.732Z,62.68
2022-08-05T23:46:23.123Z,63.97
2022-08-05T23:47:24.833Z,65.26
2022-08-05T23:48:22.994Z,62.68
2022-08-05T23:49:33.926Z,61.71
2022-08-05T23:50:22.808Z,62.04
2022-08-05T23:51:22.937Z,64.29
2022-08-05T23:52:25.035Z,63.97
2022-08-05T23:53:23.275Z,66.39
2022-08-05T23:54:25.495Z,61.39
2022-08-05T23:55:30.889Z,67.19
2022-08-05T23:56:27.306Z,63.16
2022-08-05T23:57:23.897Z,62.84
2022-08-05T23:58:31.703Z,64.29
2022-08-05T23:59:22.768Z,62.36
